Time;durP1;ratioP1;P1;durP2;ratioP2;P2;SDS_P1;SDS_P2;PMS_P1;PMS_P2;Temp;Humidity;BMP_temperature;BMP_pressure;BME280_temperature;BME280_humidity;BME280_pressure;Samples;Min_cycle;Max_cycle;Signal;HPM_P1;HPM_P2
2023/04/03 00:00:23;;;;;;;5.33;3.20;;;9.80;99.90;;;;;;5114447;28;20228;-81
2023/04/03 00:02:50;;;;;;;2.20;2.00;;;9.80;99.90;;;;;;5114440;28;20271;-79
2023/04/03 00:05:17;;;;;;;2.10;1.83;;;9.80;99.90;;;;;;5113580;28;20246;-80
2023/04/03 00:07:44;;;;;;;2.67;2.47;;;9.80;99.90;;;;;;5114244;28;20244;-80
2023/04/03 00:10:13;;;;;;;7.43;2.80;;;9.80;99.90;;;;;;5113760;28;20698;-79
2023/04/03 00:12:40;;;;;;;3.47;2.80;;;9.80;99.90;;;;;;5114371;28;20205;-80
2023/04/03 00:15:08;;;;;;;3.03;2.43;;;9.80;99.90;;;;;;5114667;28;20292;-77
2023/04/03 00:17:35;;;;;;;2.93;2.37;;;9.70;99.90;;;;;;5114238;28;20200;-80
2023/04/03 00:20:02;;;;;;;4.17;2.63;;;9.70;99.90;;;;;;5114218;28;20225;-77
2023/04/03 00:22:29;;;;;;;6.70;2.65;;;9.70;99.90;;;;;;5113788;28;20269;-78
2023/04/03 00:24:56;;;;;;;4.80;2.07;;;9.70;99.90;;;;;;5113935;28;20216;-74
2023/04/03 00:27:24;;;;;;;6.73;2.07;;;9.70;99.90;;;;;;5113672;28;20225;-75
2023/04/03 00:29:51;;;;;;;2.27;2.00;;;9.70;99.90;;;;;;5113858;28;20232;-74
2023/04/03 00:32:18;;;;;;;3.67;2.60;;;9.70;99.90;;;;;;5113513;28;20240;-73
2023/04/03 00:34:45;;;;;;;5.20;2.33;;;9.70;99.90;;;;;;5113518;28;20232;-74
2023/04/03 00:37:12;;;;;;;3.87;2.73;;;9.70;99.90;;;;;;5113308;28;20698;-75
2023/04/03 00:39:40;;;;;;;4.07;2.87;;;9.70;99.90;;;;;;5113931;28;20241;-77
2023/04/03 00:42:07;;;;;;;4.13;2.33;;;9.70;99.90;;;;;;5113891;28;20197;-77
2023/04/03 00:45:13;;;;;;;4.57;1.90;;;9.70;99.90;;;;;;5113388;28;20323;-79
2023/04/03 00:47:42;;;;;;;3.70;2.30;;;9.60;99.90;;;;;;5095556;28;20277;-79
2023/04/03 00:50:10;;;;;;;2.80;1.97;;;9.60;99.90;;;;;;5113624;28;20205;-78
2023/04/03 00:52:38;;;;;;;3.90;2.23;;;9.60;99.90;;;;;;5113861;28;20203;-79
2023/04/03 00:55:09;;;;;;;4.63;3.80;;;9.60;99.90;;;;;;5113688;28;20656;-78
2023/04/03 00:57:36;;;;;;;3.17;2.10;;;9.60;99.90;;;;;;5113509;28;20236;-77
2023/04/03 01:00:09;;;;;;;5.10;2.30;;;9.60;99.90;;;;;;5113929;28;20247;-77
2023/04/03 01:02:36;;;;;;;6.87;3.20;;;9.60;99.90;;;;;;5113425;28;20204;-77
2023/04/03 01:05:06;;;;;;;3.40;3.10;;;9.60;99.90;;;;;;5113543;28;20235;-75
2023/04/03 01:07:33;;;;;;;3.53;2.50;;;9.60;99.90;;;;;;5113018;28;20571;-76
2023/04/03 01:10:03;;;;;;;3.03;2.17;;;9.60;99.90;;;;;;5113042;28;20213;-76
2023/04/03 01:12:33;;;;;;;3.23;2.20;;;9.60;99.90;;;;;;5113046;28;20607;-76
2023/04/03 01:15:02;;;;;;;2.67;2.10;;;9.50;99.90;;;;;;5113239;28;20254;-78
2023/04/03 01:17:32;;;;;;;2.20;2.00;;;9.60;99.90;;;;;;5112627;28;20209;-78
2023/04/03 01:20:35;;;;;;;2.50;2.30;;;9.60;99.90;;;;;;5113464;28;20233;-79
2023/04/03 01:23:11;;;;;;;3.73;2.13;;;9.50;99.90;;;;;;5113127;28;20257;-76
2023/04/03 01:25:40;;;;;;;3.00;2.47;;;9.50;99.90;;;;;;5112839;28;20236;-73
2023/04/03 01:28:10;;;;;;;4.60;1.97;;;9.50;99.90;;;;;;5113031;28;20259;-76
2023/04/03 01:30:44;;;;;;;3.77;2.17;;;9.50;99.90;;;;;;5113085;28;20200;-76
2023/04/03 01:33:12;;;;;;;4.10;2.83;;;9.50;99.90;;;;;;5111629;28;20240;-74
2023/04/03 01:35:39;;;;;;;2.97;2.17;;;9.50;99.90;;;;;;5112745;28;20240;-77
2023/04/03 01:38:06;;;;;;;4.10;2.80;;;9.60;99.90;;;;;;5113001;28;20233;-74
2023/04/03 01:40:33;;;;;;;5.63;2.77;;;9.50;99.90;;;;;;5112449;28;20201;-78
2023/04/03 01:43:00;;;;;;;3.77;2.73;;;9.60;99.90;;;;;;5112554;28;20228;-77
2023/04/03 01:45:27;;;;;;;4.80;2.70;;;9.50;99.90;;;;;;5111807;28;20250;-77
2023/04/03 01:47:54;;;;;;;3.43;2.80;;;9.50;99.90;;;;;;5112247;28;20676;-76
2023/04/03 01:50:22;;;;;;;3.37;1.87;;;9.50;99.90;;;;;;5112056;28;20240;-76
2023/04/03 01:52:49;;;;;;;3.80;2.60;;;9.50;99.90;;;;;;5112272;28;20254;-77
2023/04/03 01:55:16;;;;;;;4.57;2.97;;;9.40;99.90;;;;;;5111877;28;20243;-77
2023/04/03 01:57:43;;;;;;;4.50;2.00;;;9.40;99.90;;;;;;5112302;28;20621;-74
2023/04/03 02:00:11;;;;;;;2.50;1.87;;;9.40;99.90;;;;;;5111510;28;20714;-72
2023/04/03 02:02:38;;;;;;;3.23;2.80;;;9.40;99.90;;;;;;5112270;28;20196;-77
2023/04/03 02:05:06;;;;;;;2.90;2.37;;;9.40;99.90;;;;;;5112180;28;20743;-76
2023/04/03 02:07:34;;;;;;;4.73;3.27;;;9.40;99.90;;;;;;5112088;28;20208;-75
2023/04/03 02:10:01;;;;;;;4.63;3.57;;;9.40;99.90;;;;;;5111739;28;20758;-78
2023/04/03 02:12:28;;;;;;;3.53;2.77;;;9.40;99.90;;;;;;5111451;28;20750;-76
2023/04/03 02:14:55;;;;;;;4.10;2.10;;;9.30;99.90;;;;;;5111831;28;20244;-74
2023/04/03 02:17:22;;;;;;;3.67;2.87;;;9.30;99.90;;;;;;5111274;28;20243;-72
2023/04/03 02:19:49;;;;;;;3.97;2.70;;;9.30;99.90;;;;;;5111948;28;20200;-72
2023/04/03 02:22:16;;;;;;;3.77;2.40;;;9.30;99.90;;;;;;5111352;28;20255;-71
2023/04/03 02:24:44;;;;;;;3.83;2.67;;;9.30;99.90;;;;;;5111659;28;20260;-72
2023/04/03 02:27:11;;;;;;;5.97;3.47;;;9.30;99.90;;;;;;5111169;28;20236;-71
2023/04/03 02:29:38;;;;;;;4.47;2.50;;;9.20;99.90;;;;;;5111504;28;20236;-73
2023/04/03 02:32:06;;;;;;;3.00;2.60;;;9.20;99.90;;;;;;5112075;28;20310;-73
2023/04/03 02:34:33;;;;;;;2.60;2.23;;;9.20;99.90;;;;;;5111565;28;20203;-73
2023/04/03 02:37:00;;;;;;;5.43;2.83;;;9.20;99.90;;;;;;5111477;28;20239;-73
2023/04/03 02:39:27;;;;;;;3.47;3.07;;;9.20;99.90;;;;;;5111190;28;20236;-72
2023/04/03 02:41:55;;;;;;;4.17;2.40;;;9.20;99.90;;;;;;5111177;28;20235;-71
2023/04/03 02:44:23;;;;;;;2.53;2.27;;;9.10;99.90;;;;;;5110087;28;20268;-70
2023/04/03 02:46:50;;;;;;;5.27;2.70;;;9.10;99.90;;;;;;5111421;28;20569;-70
2023/04/03 02:49:17;;;;;;;4.80;3.13;;;9.10;99.90;;;;;;5111100;28;20239;-70
2023/04/03 02:51:44;;;;;;;4.47;2.50;;;9.10;99.90;;;;;;5111360;28;20235;-70
2023/04/03 02:54:11;;;;;;;2.83;2.57;;;9.10;99.90;;;;;;5110901;28;20205;-72
2023/04/03 02:56:38;;;;;;;2.80;2.60;;;9.00;99.90;;;;;;5112015;28;20232;-71
2023/04/03 02:59:06;;;;;;;3.40;2.87;;;9.00;99.90;;;;;;5111314;28;20291;-72
2023/04/03 03:01:33;;;;;;;2.73;2.40;;;9.00;99.90;;;;;;5111213;28;20237;-72
2023/04/03 03:04:00;;;;;;;3.23;2.53;;;9.00;99.90;;;;;;5111232;28;20225;-71
2023/04/03 03:06:27;;;;;;;2.83;2.13;;;9.00;99.90;;;;;;5110822;28;20239;-71
2023/04/03 03:08:55;;;;;;;3.87;2.67;;;9.00;99.90;;;;;;5111231;28;20675;-72
2023/04/03 03:11:22;;;;;;;3.00;2.70;;;9.00;99.90;;;;;;5110555;28;20248;-72
2023/04/03 03:13:48;;;;;;;2.70;2.40;;;9.00;99.90;;;;;;5111108;28;20648;-72
2023/04/03 03:16:17;;;;;;;2.80;2.43;;;9.10;99.90;;;;;;5110783;28;20243;-74
2023/04/03 03:18:44;;;;;;;4.73;2.70;;;9.10;99.90;;;;;;5110993;28;20243;-70
2023/04/03 03:21:11;;;;;;;2.87;2.27;;;9.10;99.90;;;;;;5110644;28;20219;-71
2023/04/03 03:23:38;;;;;;;4.47;3.37;;;9.10;99.90;;;;;;5110975;28;20249;-70
2023/04/03 03:26:07;;;;;;;5.83;3.57;;;9.20;99.90;;;;;;5109205;28;20240;-76
2023/04/03 03:28:36;;;;;;;3.30;3.00;;;9.20;99.90;;;;;;5110081;28;20240;-73
2023/04/03 03:31:03;;;;;;;5.77;2.97;;;9.20;99.90;;;;;;5110937;28;20193;-73
2023/04/03 03:33:31;;;;;;;3.23;2.93;;;9.20;99.90;;;;;;5110568;28;20236;-75
2023/04/03 03:35:58;;;;;;;4.07;3.23;;;9.20;99.90;;;;;;5110661;28;21074;-73
2023/04/03 03:38:25;;;;;;;3.13;2.83;;;9.10;99.90;;;;;;5110396;28;20205;-74
2023/04/03 03:40:53;;;;;;;4.97;2.10;;;9.20;99.90;;;;;;5110628;28;20213;-75
2023/04/03 03:43:20;;;;;;;4.00;3.40;;;9.20;99.90;;;;;;5110019;28;20664;-75
2023/04/03 03:45:52;;;;;;;4.57;3.10;;;9.20;99.90;;;;;;5110703;28;20237;-74
2023/04/03 03:48:19;;;;;;;3.30;3.00;;;9.20;99.90;;;;;;5109547;28;20211;-77
2023/04/03 03:50:48;;;;;;;3.27;2.90;;;9.20;99.90;;;;;;5110248;28;20209;-75
2023/04/03 03:53:15;;;;;;;3.80;2.50;;;9.10;99.90;;;;;;5110315;28;20228;-76
2023/04/03 03:55:42;;;;;;;4.87;2.90;;;9.10;99.90;;;;;;5111562;28;20643;-75
2023/04/03 03:58:09;;;;;;;4.10;3.27;;;9.10;99.90;;;;;;5114625;28;20247;-72
2023/04/03 04:00:36;;;;;;;3.03;2.73;;;9.20;99.90;;;;;;5114793;28;20200;-74
2023/04/03 04:03:03;;;;;;;4.13;3.03;;;9.10;99.90;;;;;;5114105;28;20244;-77
2023/04/03 04:05:30;;;;;;;3.03;2.73;;;9.10;99.90;;;;;;5113991;28;20731;-77
2023/04/03 04:07:58;;;;;;;3.97;2.53;;;9.10;99.90;;;;;;5114533;28;20207;-77
2023/04/03 04:10:25;;;;;;;3.83;3.43;;;9.10;99.90;;;;;;5113865;28;20243;-76
2023/04/03 04:12:52;;;;;;;3.47;2.70;;;9.10;99.90;;;;;;5114422;28;20646;-75
2023/04/03 04:15:21;;;;;;;3.53;2.80;;;9.10;99.90;;;;;;5114003;28;20229;-76
2023/04/03 04:17:48;;;;;;;3.03;2.60;;;9.10;99.90;;;;;;5113988;28;20212;-76
2023/04/03 04:20:15;;;;;;;3.23;3.00;;;9.10;99.90;;;;;;5113752;28;20225;-76
2023/04/03 04:22:42;;;;;;;4.93;3.43;;;9.10;99.90;;;;;;5114249;28;20236;-73
2023/04/03 04:25:10;;;;;;;4.60;2.83;;;9.10;99.90;;;;;;5113728;28;20308;-75
2023/04/03 04:27:38;;;;;;;4.47;2.60;;;9.10;99.90;;;;;;5114379;28;20244;-78
2023/04/03 04:30:06;;;;;;;4.83;2.67;;;9.10;99.90;;;;;;5114061;28;20235;-76
2023/04/03 04:32:32;;;;;;;3.97;3.67;;;9.10;99.90;;;;;;5113908;28;20205;-77
2023/04/03 04:35:00;;;;;;;3.50;2.73;;;9.10;99.90;;;;;;5113830;28;20244;-76
2023/04/03 04:37:27;;;;;;;2.93;2.63;;;9.10;99.90;;;;;;5113656;28;20205;-74
2023/04/03 04:39:54;;;;;;;4.70;3.43;;;9.10;99.90;;;;;;5113637;28;20263;-75
2023/04/03 04:42:22;;;;;;;3.90;3.30;;;9.10;99.90;;;;;;5113347;28;20205;-75
2023/04/03 04:44:49;;;;;;;6.67;3.80;;;9.10;99.90;;;;;;5113531;28;20734;-74
2023/04/03 04:47:16;;;;;;;6.33;3.10;;;9.10;99.90;;;;;;5113552;28;20203;-76
2023/04/03 04:49:43;;;;;;;7.73;4.00;;;9.10;99.90;;;;;;5113640;28;20237;-75
2023/04/03 04:52:10;;;;;;;3.67;3.37;;;9.10;99.90;;;;;;5113454;28;20241;-74
2023/04/03 04:54:36;;;;;;;6.47;3.40;;;9.10;99.90;;;;;;5113615;28;20255;-73
2023/04/03 04:57:03;;;;;;;5.50;2.83;;;9.40;99.90;;;;;;5112730;28;20240;-73
2023/04/03 04:59:32;;;;;;;4.73;3.47;;;9.30;99.90;;;;;;5110695;28;20244;-73
2023/04/03 05:01:59;;;;;;;5.63;2.77;;;9.40;99.90;;;;;;5112040;28;20247;-72
2023/04/03 05:04:25;;;;;;;3.43;2.67;;;9.70;99.90;;;;;;5112173;28;20746;-76
2023/04/03 05:06:52;;;;;;;4.43;3.30;;;9.50;99.90;;;;;;5112411;28;20240;-74
2023/04/03 05:09:20;;;;;;;3.73;3.43;;;9.30;99.90;;;;;;5112404;28;20240;-75
2023/04/03 05:11:47;;;;;;;3.97;3.57;;;9.20;99.90;;;;;;5111707;28;20295;-75
2023/04/03 05:14:14;;;;;;;3.47;3.23;;;9.20;99.90;;;;;;5112393;28;20236;-75
2023/04/03 05:16:42;;;;;;;4.60;3.17;;;9.20;99.90;;;;;;5113182;28;20233;-74
2023/04/03 05:19:09;;;;;;;4.00;3.40;;;9.20;99.90;;;;;;5112538;28;20250;-74
2023/04/03 05:21:36;;;;;;;9.87;3.50;;;9.20;99.90;;;;;;5113192;28;20201;-74
2023/04/03 05:24:03;;;;;;;3.37;2.83;;;9.20;99.90;;;;;;5113042;28;20212;-75
2023/04/03 05:26:30;;;;;;;3.93;3.47;;;9.20;99.90;;;;;;5112053;28;20236;-75
2023/04/03 05:28:57;;;;;;;3.83;3.03;;;9.10;99.90;;;;;;5113058;28;20240;-75
2023/04/03 05:31:24;;;;;;;3.43;3.13;;;9.10;99.90;;;;;;5112394;28;20684;-73
2023/04/03 05:33:53;;;;;;;3.97;3.53;;;9.10;99.90;;;;;;5112682;28;20306;-73
2023/04/03 05:36:20;;;;;;;4.43;4.03;;;9.00;99.90;;;;;;5112185;28;20201;-74
2023/04/03 05:38:47;;;;;;;7.20;3.47;;;9.00;99.90;;;;;;5112575;28;20247;-74
2023/04/03 05:41:14;;;;;;;3.47;3.17;;;9.00;99.90;;;;;;5111843;28;20236;-72
2023/04/03 05:43:41;;;;;;;8.37;3.60;;;9.00;99.90;;;;;;5112520;28;20243;-73
2023/04/03 05:46:11;;;;;;;4.50;4.10;;;9.00;99.90;;;;;;5112388;28;20323;-73
2023/04/03 05:48:38;;;;;;;6.53;4.07;;;9.10;99.90;;;;;;5113051;28;20201;-73
2023/04/03 05:51:07;;;;;;;4.10;3.70;;;9.10;99.90;;;;;;5112795;28;20243;-71
2023/04/03 05:53:37;;;;;;;3.60;3.30;;;9.10;99.90;;;;;;5112293;28;20236;-73
2023/04/03 05:56:04;;;;;;;4.17;3.80;;;9.10;99.90;;;;;;5112473;28;20210;-73
2023/04/03 05:58:31;;;;;;;5.17;3.80;;;9.10;99.90;;;;;;5112107;28;20569;-73
2023/04/03 06:00:58;;;;;;;7.57;3.90;;;9.10;99.90;;;;;;5110227;28;20228;-72
2023/04/03 06:03:25;;;;;;;4.83;3.27;;;9.10;99.90;;;;;;5110946;28;20622;-72
2023/04/03 06:05:53;;;;;;;3.90;3.50;;;9.10;99.90;;;;;;5110021;28;20235;-73
2023/04/03 06:08:21;;;;;;;5.43;3.80;;;9.20;99.90;;;;;;5110954;28;20229;-74
2023/04/03 06:10:48;;;;;;;4.07;3.40;;;9.30;99.90;;;;;;5111373;28;20305;-74
2023/04/03 06:13:15;;;;;;;2.90;2.60;;;9.20;99.90;;;;;;5117466;27;20228;-73
2023/04/03 06:15:42;;;;;;;3.53;3.00;;;9.20;99.90;;;;;;5117802;27;20243;-73
2023/04/03 06:18:09;;;;;;;5.37;2.83;;;9.30;99.90;;;;;;5115491;27;20228;-73
2023/04/03 06:20:36;;;;;;;5.07;3.00;;;9.20;99.90;;;;;;5119944;27;20204;-73
2023/04/03 06:23:03;;;;;;;3.83;3.07;;;9.20;99.90;;;;;;5111651;28;20228;-73
2023/04/03 06:25:31;;;;;;;3.30;3.00;;;9.30;99.90;;;;;;5111450;28;20272;-72
2023/04/03 06:27:58;;;;;;;3.20;2.90;;;9.30;99.90;;;;;;5111532;28;20201;-74
2023/04/03 06:30:25;;;;;;;7.57;3.43;;;9.30;99.90;;;;;;5112447;27;20247;-74
2023/04/03 06:32:52;;;;;;;4.50;3.10;;;9.30;99.90;;;;;;5122858;27;20197;-76
2023/04/03 06:35:20;;;;;;;5.00;3.37;;;9.30;99.90;;;;;;5111323;28;20205;-76
2023/04/03 06:37:47;;;;;;;2.97;2.47;;;9.30;99.90;;;;;;5117485;27;20201;-75
2023/04/03 06:40:20;;;;;;;3.23;2.83;;;9.30;99.90;;;;;;5111171;28;20232;-75
2023/04/03 06:42:49;;;;;;;4.63;2.73;;;9.40;99.90;;;;;;5111580;28;20228;-74
2023/04/03 06:45:16;;;;;;;5.77;2.70;;;9.40;99.90;;;;;;5110914;28;20256;-74
2023/04/03 06:47:42;;;;;;;4.07;3.17;;;9.40;99.90;;;;;;5111360;28;20231;-76
2023/04/03 06:50:13;;;;;;;4.20;3.40;;;9.40;99.90;;;;;;5111286;28;20244;-73
2023/04/03 06:52:41;;;;;;;4.73;2.50;;;9.40;99.90;;;;;;5111218;28;20208;-74
2023/04/03 06:55:09;;;;;;;4.43;2.97;;;9.50;99.90;;;;;;5108748;28;20204;-74
2023/04/03 06:57:36;;;;;;;3.13;2.83;;;9.50;99.90;;;;;;5111176;28;20663;-73
2023/04/03 07:00:06;;;;;;;7.00;3.00;;;9.60;99.90;;;;;;5108042;28;20247;-73
2023/04/03 07:02:34;;;;;;;3.37;2.67;;;9.60;99.90;;;;;;5109579;28;20197;-73
2023/04/03 07:05:01;;;;;;;4.50;3.17;;;9.60;99.90;;;;;;5103782;28;20290;-72
2023/04/03 07:07:28;;;;;;;4.73;3.40;;;9.70;99.90;;;;;;5109330;28;20291;-73
2023/04/03 07:09:55;;;;;;;6.13;3.30;;;9.70;99.90;;;;;;5111121;28;20618;-73
2023/04/03 07:12:22;;;;;;;4.03;2.73;;;9.70;99.90;;;;;;5110588;28;20288;-73
2023/04/03 07:14:48;;;;;;;4.47;2.73;;;9.70;99.90;;;;;;5110924;28;20236;-73
2023/04/03 07:17:17;;;;;;;5.93;3.53;;;9.70;99.90;;;;;;5110474;28;20733;-72
2023/04/03 07:19:44;;;;;;;5.00;2.83;;;9.70;99.90;;;;;;5111165;28;20235;-73
2023/04/03 07:22:12;;;;;;;5.03;2.93;;;9.80;99.90;;;;;;5109527;28;20247;-73
2023/04/03 07:24:39;;;;;;;4.93;3.17;;;9.80;99.90;;;;;;5111294;28;20695;-73
2023/04/03 07:27:08;;;;;;;4.87;2.83;;;9.80;99.90;;;;;;5110845;28;20587;-75
2023/04/03 07:29:35;;;;;;;6.20;2.90;;;9.90;99.90;;;;;;5111114;28;20201;-74
2023/04/03 07:32:02;;;;;;;3.97;2.40;;;9.90;99.90;;;;;;5114029;28;20204;-73
2023/04/03 07:34:30;;;;;;;3.10;2.80;;;9.80;99.90;;;;;;5114656;28;20205;-73
2023/04/03 07:36:57;;;;;;;4.80;3.97;;;9.80;99.90;;;;;;5113140;28;20201;-77
2023/04/03 07:39:24;;;;;;;3.10;2.80;;;10.00;99.90;;;;;;5113919;28;20303;-76
2023/04/03 07:41:51;;;;;;;5.40;3.70;;;9.90;99.90;;;;;;5114243;28;20226;-75
2023/04/03 07:44:18;;;;;;;4.63;3.77;;;10.00;99.90;;;;;;5114420;28;20247;-80
2023/04/03 07:46:46;;;;;;;3.80;2.93;;;10.10;99.90;;;;;;5114750;28;20272;-76
2023/04/03 07:49:13;;;;;;;6.63;5.13;;;10.10;99.90;;;;;;5114231;28;20247;-73
2023/04/03 07:51:41;;;;;;;6.70;4.00;;;10.20;99.90;;;;;;5114695;28;20232;-75
2023/04/03 07:54:08;;;;;;;4.13;3.33;;;10.20;99.90;;;;;;5114236;28;20240;-76
2023/04/03 07:56:35;;;;;;;8.60;4.40;;;10.30;99.90;;;;;;5114438;28;20244;-75
2023/04/03 07:59:02;;;;;;;4.83;3.40;;;10.40;99.90;;;;;;5115160;28;20637;-76
2023/04/03 08:01:32;;;;;;;6.77;4.13;;;10.50;99.90;;;;;;5114380;28;20201;-76
2023/04/03 08:03:59;;;;;;;3.87;3.27;;;10.50;99.90;;;;;;5114317;28;20196;-77
2023/04/03 08:06:26;;;;;;;4.00;3.00;;;10.60;99.90;;;;;;5113527;28;20329;-76
2023/04/03 08:08:54;;;;;;;3.83;3.53;;;10.70;99.90;;;;;;5116760;27;20232;-76
2023/04/03 08:11:21;;;;;;;4.53;3.13;;;10.70;99.90;;;;;;5115083;27;20279;-76
2023/04/03 08:13:48;;;;;;;2.83;2.53;;;10.80;99.90;;;;;;5114249;28;20240;-76
2023/04/03 08:16:18;;;;;;;4.33;3.60;;;10.80;99.90;;;;;;5113684;28;20236;-75
2023/04/03 08:18:45;;;;;;;5.10;3.37;;;11.00;99.90;;;;;;5113797;28;20244;-76
2023/04/03 08:21:13;;;;;;;6.00;2.53;;;11.00;99.90;;;;;;5112476;28;20244;-75
2023/04/03 08:23:41;;;;;;;3.00;2.07;;;11.00;99.90;;;;;;5106971;28;20648;-81
2023/04/03 08:26:13;;;;;;;3.23;2.93;;;10.90;99.90;;;;;;5111336;28;20243;-76
2023/04/03 08:28:41;;;;;;;2.70;2.50;;;10.90;99.90;;;;;;5113220;28;20236;-76
2023/04/03 08:31:11;;;;;;;3.13;2.83;;;10.80;99.90;;;;;;5110949;27;20205;-76
2023/04/03 08:33:38;;;;;;;3.20;2.70;;;11.00;99.90;;;;;;5113135;28;20205;-74
2023/04/03 08:36:07;;;;;;;3.77;2.60;;;11.10;99.90;;;;;;5113425;28;20687;-76
2023/04/03 08:38:36;;;;;;;3.17;2.87;;;11.30;99.90;;;;;;5108572;27;20205;-76
2023/04/03 08:41:11;;;;;;;6.25;4.88;;;11.60;99.90;;;;;;5109792;27;20258;-79
2023/04/03 08:43:56;;;;;;;6.00;4.50;;;11.80;99.90;;;;;;5112525;27;20212;-76
2023/04/03 08:46:27;;;;;;;4.57;2.95;;;11.90;99.90;;;;;;5111179;28;20252;-76
2023/04/03 08:48:55;;;;;;;2.95;2.75;;;11.90;99.90;;;;;;5112677;28;20239;-74
2023/04/03 08:51:24;;;;;;;2.92;2.58;;;12.10;99.90;;;;;;5112657;27;20196;-76
2023/04/03 08:53:58;;;;;;;8.40;4.28;;;12.40;99.90;;;;;;5111157;28;20209;-77
2023/04/03 08:56:25;;;;;;;12.55;7.70;;;12.80;99.90;;;;;;5113047;28;20267;-76
2023/04/03 08:58:58;;;;;;;9.65;6.78;;;13.60;99.90;;;;;;5113107;28;20211;-75
2023/04/03 09:01:30;;;;;;;4.40;3.63;;;13.20;99.90;;;;;;5112314;28;20622;-78
2023/04/03 09:03:57;;;;;;;7.07;4.85;;;12.80;99.90;;;;;;5110945;28;20209;-79
2023/04/03 09:06:28;;;;;;;7.60;3.15;;;12.70;99.90;;;;;;5112669;28;20333;-80
2023/04/03 09:09:11;;;;;;;3.47;2.47;;;12.40;99.90;;;;;;5114009;28;20205;-79
2023/04/03 09:11:47;;;;;;;3.45;2.03;;;12.90;99.90;;;;;;5113702;28;20274;-77
2023/04/03 09:14:24;;;;;;;2.50;2.30;;;13.30;99.90;;;;;;5112686;28;20251;-76
2023/04/03 09:16:57;;;;;;;4.55;2.28;;;13.30;99.90;;;;;;5112921;28;20620;-77
2023/04/03 09:19:35;;;;;;;5.13;2.72;;;13.60;99.90;;;;;;5112427;28;20216;-75
2023/04/03 09:22:12;;;;;;;2.63;2.38;;;13.70;99.90;;;;;;5112901;28;20215;-76
2023/04/03 09:24:40;;;;;;;2.40;1.95;;;13.70;99.90;;;;;;5112813;28;20232;-79
2023/04/03 09:27:10;;;;;;;3.13;2.83;;;13.90;99.90;;;;;;5111947;28;20237;-80
2023/04/03 09:29:42;;;;;;;5.13;2.53;;;14.00;99.90;;;;;;5113012;28;20240;-80
2023/04/03 09:32:20;;;;;;;2.95;2.45;;;13.90;99.90;;;;;;5112470;28;20690;-83
2023/04/03 09:34:49;;;;;;;5.78;1.80;;;13.70;99.90;;;;;;5112824;28;20284;-76
2023/04/03 09:37:37;;;;;;;4.43;2.40;;;14.70;99.90;;;;;;5111975;28;20273;-77
2023/04/03 09:40:05;;;;;;;3.03;1.90;;;15.60;99.90;;;;;;5112560;28;20244;-80
2023/04/03 09:42:33;;;;;;;3.20;2.30;;;15.80;99.90;;;;;;5110582;28;20204;-77
2023/04/03 09:45:03;;;;;;;3.63;2.03;;;15.00;99.90;;;;;;5104831;28;20201;-77
2023/04/03 09:47:33;;;;;;;5.90;2.10;;;14.80;99.90;;;;;;5102419;28;20248;-74
2023/04/03 09:50:19;;;;;;;2.97;2.60;;;14.50;99.90;;;;;;5111937;28;20687;-76
2023/04/03 09:52:51;;;;;;;3.35;2.72;;;14.50;99.90;;;;;;5111482;28;20201;-75
2023/04/03 09:55:21;;;;;;;4.22;1.80;;;14.90;99.90;;;;;;5111298;28;20299;-75
2023/04/03 09:57:49;;;;;;;1.90;1.42;;;14.70;99.90;;;;;;5120162;27;20214;-75
2023/04/03 10:00:24;;;;;;;2.35;1.40;;;14.50;99.90;;;;;;5115310;27;20243;-74
2023/04/03 10:02:53;;;;;;;4.15;1.85;;;14.50;99.90;;;;;;5111587;28;20251;-75
2023/04/03 10:05:30;;;;;;;3.28;1.67;;;14.60;99.90;;;;;;5111743;28;20257;-75
2023/04/03 10:08:10;;;;;;;1.35;1.23;;;13.80;99.90;;;;;;5111715;28;20730;-74
2023/04/03 10:10:37;;;;;;;1.45;1.20;;;13.70;99.90;;;;;;5111877;28;20209;-75
2023/04/03 10:13:06;;;;;;;6.80;3.33;;;14.00;99.90;;;;;;5112019;28;20703;-75
2023/04/03 10:15:41;;;;;;;11.88;9.35;;;14.40;99.90;;;;;;5111721;28;20225;-75
2023/04/03 10:18:24;;;;;;;4.97;4.28;;;14.80;99.90;;;;;;5111271;28;20200;-75
2023/04/03 10:20:53;;;;;;;11.50;10.05;;;15.10;99.90;;;;;;5110572;28;20236;-75
2023/04/03 10:23:27;;;;;;;6.00;4.68;;;15.20;99.90;;;;;;5110435;28;20286;-75
2023/04/03 10:26:11;;;;;;;3.38;2.00;;;15.20;99.90;;;;;;5110919;28;20199;-75
2023/04/03 10:28:48;;;;;;;4.40;2.17;;;14.70;99.90;;;;;;5111721;28;20209;-76
2023/04/03 10:31:22;;;;;;;2.30;1.70;;;14.70;99.90;;;;;;5109226;28;20235;-76
2023/04/03 10:33:58;;;;;;;1.42;1.33;;;15.30;99.90;;;;;;5111389;28;20251;-76
2023/04/03 10:36:33;;;;;;;2.42;1.20;;;15.50;99.90;;;;;;5108253;28;20215;-76
2023/04/03 10:39:05;;;;;;;3.15;1.88;;;15.70;99.90;;;;;;5109647;28;20228;-80
2023/04/03 10:41:47;;;;;;;2.33;2.08;;;15.10;99.90;;;;;;5110847;28;20239;-76
2023/04/03 10:44:21;;;;;;;2.25;2.05;;;15.10;99.90;;;;;;5110651;28;20208;-75
2023/04/03 10:46:53;;;;;;;11.35;2.65;;;14.90;99.90;;;;;;5111296;28;20233;-75
2023/04/03 10:49:32;;;;;;;1.95;1.50;;;15.50;99.90;;;;;;5110434;28;20212;-75
2023/04/03 10:52:07;;;;;;;2.25;1.73;;;15.20;99.90;;;;;;5111397;28;20225;-76
2023/04/03 10:54:39;;;;;;;2.78;1.20;;;14.70;99.90;;;;;;5111359;28;20261;-76
2023/04/03 10:57:09;;;;;;;2.88;1.90;;;14.90;99.90;;;;;;5110830;28;20223;-76
2023/04/03 10:59:39;;;;;;;4.10;1.85;;;14.90;99.90;;;;;;5111047;28;20640;-76
2023/04/03 11:02:18;;;;;;;2.08;1.60;;;14.10;99.90;;;;;;5110927;28;20254;-75
2023/04/03 11:04:48;;;;;;;11.18;8.18;;;13.70;99.90;;;;;;5111164;28;20232;-75
2023/04/03 11:07:21;;;;;;;3.08;1.90;;;13.70;99.90;;;;;;5114745;28;20236;-75
2023/04/03 11:09:51;;;;;;;1.63;1.52;;;14.10;99.90;;;;;;5115396;28;20255;-75
2023/04/03 11:12:24;;;;;;;6.43;4.57;;;14.60;99.90;;;;;;5114286;28;20214;-76
2023/04/03 11:14:52;;;;;;;7.18;4.95;;;14.80;99.90;;;;;;5113612;27;20224;-79
2023/04/03 11:17:34;;;;;;;5.65;4.47;;;14.40;99.90;;;;;;5114807;28;20282;-81
2023/04/03 11:20:07;;;;;;;2.83;1.60;;;14.40;99.90;;;;;;5129776;27;20196;-80
2023/04/03 11:22:37;;;;;;;2.63;2.00;;;14.40;99.90;;;;;;5103580;28;20554;-81
2023/04/03 11:25:15;;;;;;;2.10;1.33;;;14.30;99.90;;;;;;5116169;27;20212;-81
2023/04/03 11:27:45;;;;;;;1.73;1.42;;;14.00;99.90;;;;;;5115724;27;20722;-78
2023/04/03 11:30:20;;;;;;;3.75;2.00;;;13.30;99.90;;;;;;5117005;27;20205;-76
2023/04/03 11:33:23;;;;;;;3.45;2.25;;;13.00;99.90;;;;;;5119279;27;20189;-78
2023/04/03 11:35:53;;;;;;;4.75;3.40;;;13.00;99.90;;;;;;5114519;27;20231;-79
2023/04/03 11:38:27;;;;;;;1.80;1.65;;;13.10;99.90;;;;;;5121276;27;20559;-80
2023/04/03 11:40:55;;;;;;;1.50;1.40;;;13.40;99.90;;;;;;5115526;27;20211;-79
2023/04/03 11:43:26;;;;;;;5.95;2.70;;;13.40;99.90;;;;;;5114311;28;20684;-78
2023/04/03 11:46:00;;;;;;;1.88;1.55;;;13.70;99.90;;;;;;5114449;28;20200;-82
2023/04/03 11:48:49;;;;;;;3.70;2.25;;;14.00;99.90;;;;;;5111838;28;20269;-81
2023/04/03 11:51:41;;;;;;;5.30;4.68;;;14.20;99.90;;;;;;5115720;27;20251;-78
2023/04/03 11:54:36;;;;;;;1.70;1.23;;;14.60;99.90;;;;;;5080425;27;20684;-79
2023/04/03 11:57:44;;;;;;;2.03;1.80;;;14.50;99.90;;;;;;5120002;27;20235;-83
2023/04/03 12:00:52;;;;;;;2.33;1.30;;;14.30;99.90;;;;;;5112335;28;20236;-82
2023/04/03 12:04:07;;;;;;;3.50;2.08;;;14.40;99.90;;;;;;5109883;27;20201;-84
2023/04/03 12:07:14;;;;;;;8.82;6.38;;;14.50;99.90;;;;;;5114144;28;20576;-78
2023/04/03 12:10:16;;;;;;;3.63;3.03;;;15.00;99.90;;;;;;5102667;28;20238;-79
2023/04/03 12:12:43;;;;;;;2.95;1.58;;;15.00;99.90;;;;;;5111367;27;20239;-78
2023/04/03 12:15:44;;;;;;;1.60;1.15;;;14.70;99.90;;;;;;5103465;28;20209;-81
2023/04/03 12:18:51;;;;;;;1.95;1.17;;;14.40;99.90;;;;;;5095327;27;20267;-79
2023/04/03 12:21:21;;;;;;;2.35;1.63;;;14.20;99.90;;;;;;5093843;28;20198;-78
2023/04/03 12:24:00;;;;;;;1.52;1.42;;;14.50;99.90;;;;;;5094134;28;20217;-78
2023/04/03 12:26:34;;;;;;;2.28;1.88;;;14.80;99.90;;;;;;5093083;28;20209;-77
2023/04/03 12:29:11;;;;;;;1.55;1.45;;;14.80;99.90;;;;;;5109672;28;20258;-78
2023/04/03 12:31:47;;;;;;;2.08;1.33;;;15.00;99.90;;;;;;5106197;28;20248;-79
2023/04/03 12:34:26;;;;;;;2.90;1.80;;;15.10;99.90;;;;;;5113931;28;20282;-81
2023/04/03 12:37:04;;;;;;;2.58;1.35;;;15.10;99.90;;;;;;5113818;28;20207;-75
2023/04/03 12:39:53;;;;;;;1.60;1.40;;;15.10;99.90;;;;;;5113926;28;20224;-76
2023/04/03 12:42:40;;;;;;;2.22;2.03;;;15.00;99.90;;;;;;5113350;28;20228;-75
2023/04/03 12:45:18;;;;;;;5.28;1.60;;;15.10;99.90;;;;;;5113403;28;20251;-76
2023/04/03 12:47:45;;;;;;;2.85;1.58;;;15.10;99.90;;;;;;5113917;28;20750;-76
2023/04/03 12:50:23;;;;;;;2.00;1.48;;;15.20;99.90;;;;;;5113603;28;20207;-77
2023/04/03 12:52:55;;;;;;;4.25;1.65;;;15.20;99.90;;;;;;5113319;28;20699;-77
2023/04/03 12:55:23;;;;;;;3.25;1.60;;;15.20;99.90;;;;;;5112318;28;20671;-76
2023/04/03 12:57:51;;;;;;;3.90;1.75;;;15.50;99.90;;;;;;5113531;28;20691;-76
2023/04/03 13:00:29;;;;;;;2.13;1.20;;;15.50;99.90;;;;;;5113223;28;20241;-77
2023/04/03 13:02:56;;;;;;;1.40;1.30;;;15.40;99.90;;;;;;5112414;27;20200;-78
2023/04/03 13:05:24;;;;;;;2.10;1.30;;;15.10;99.90;;;;;;5112218;28;20205;-82
2023/04/03 13:07:56;;;;;;;34.40;17.63;;;15.20;99.90;;;;;;5113910;27;20715;-75
2023/04/03 13:10:23;;;;;;;2.40;2.20;;;15.20;99.90;;;;;;5115905;27;20689;-78